Time;durP1;ratioP1;P1;durP2;ratioP2;P2;SDS_P1;SDS_P2;PMS_P1;PMS_P2;Temp;Humidity;BMP_temperature;BMP_pressure;BME280_temperature;BME280_humidity;BME280_pressure;Samples;Min_cycle;Max_cycle;Signal;HPM_P1;HPM_P2
2021/06/10 00:01:08;;;;;;;;;;;15.70;99.90;;;;;;6191052;23;19947;-79
2021/06/10 00:03:35;;;;;;;;;;;15.70;99.90;;;;;;6190181;23;20420;-78
2021/06/10 00:06:02;;;;;;;;;;;15.60;99.90;;;;;;6215436;23;19926;-78
2021/06/10 00:08:34;;;;;;;;;;;15.60;99.90;;;;;;6215263;23;19920;-78
2021/06/10 00:11:01;;;;;;;;;;;15.60;99.90;;;;;;6189279;23;20264;-78
2021/06/10 00:13:28;;;;;;;;;;;15.50;99.90;;;;;;6214309;23;19920;-78
2021/06/10 00:15:55;;;;;;;;;;;15.50;99.90;;;;;;6189908;23;20363;-78
2021/06/10 00:18:22;;;;;;;;;;;15.40;99.90;;;;;;6189624;23;19927;-78
2021/06/10 00:20:49;;;;;;;;;;;15.30;99.90;;;;;;6216127;23;19927;-78
2021/06/10 00:23:16;;;;;;;;;;;15.30;99.90;;;;;;6214506;23;19926;-78
2021/06/10 00:25:48;;;;;;;;;;;15.20;99.90;;;;;;6214695;23;19943;-78
2021/06/10 00:28:15;;;;;;;;;;;15.10;99.90;;;;;;6189539;23;19924;-78
2021/06/10 00:30:41;;;;;;;;;;;15.10;99.90;;;;;;6189366;23;19920;-80
2021/06/10 00:33:08;;;;;;;;;;;15.00;99.90;;;;;;6214171;23;19920;-78
2021/06/10 00:35:35;;;;;;;;;;;15.00;99.90;;;;;;6212545;23;19920;-80
2021/06/10 00:38:02;;;;;;;;;;;15.00;99.90;;;;;;6237734;23;19920;-80
2021/06/10 00:40:31;;;;;;;;;;;15.00;99.90;;;;;;6235520;23;19920;-79
2021/06/10 00:42:58;;;;;;;;;;;14.90;99.90;;;;;;6200306;23;19920;-78
2021/06/10 00:45:30;;;;;;;;;;;15.00;99.90;;;;;;6217134;23;20408;-78
2021/06/10 00:48:01;;;;;;;;;;;14.90;99.90;;;;;;6195383;23;19998;-78
2021/06/10 00:50:42;;;;;;;;;;;14.90;99.90;;;;;;6219386;23;19942;-78
2021/06/10 00:53:20;;;;;;;;;;;14.90;99.90;;;;;;6194323;23;19920;-78
2021/06/10 00:55:51;;;;;;;;;;;14.90;99.90;;;;;;6219304;23;19970;-78
2021/06/10 00:58:18;;;;;;;;;;;14.80;99.90;;;;;;6194335;23;20003;-78
2021/06/10 01:00:45;;;;;;;;;;;14.90;99.90;;;;;;6194112;23;19974;-78
2021/06/10 01:03:12;;;;;;;;;;;14.90;99.90;;;;;;6218670;23;20257;-78
2021/06/10 01:05:48;;;;;;;;;;;14.90;99.90;;;;;;6218910;23;19920;-78
2021/06/10 01:08:39;;;;;;;;;;;14.90;99.90;;;;;;6194957;23;19971;-78
2021/06/10 01:11:11;;;;;;;;;;;14.90;99.90;;;;;;6219032;23;19927;-78
2021/06/10 01:13:44;;;;;;;;;;;14.90;99.90;;;;;;6193859;23;19924;-78
2021/06/10 01:16:18;;;;;;;;;;;14.80;99.90;;;;;;6195324;23;19951;-78
2021/06/10 01:18:45;;;;;;;;;;;14.80;99.90;;;;;;6194344;23;19920;-78
2021/06/10 01:21:18;;;;;;;;;;;14.80;99.90;;;;;;6195921;23;19985;-78
2021/06/10 01:23:45;;;;;;;;;;;14.90;99.90;;;;;;6220633;23;19969;-78
2021/06/10 01:26:20;;;;;;;;;;;14.90;99.90;;;;;;6196252;23;19920;-78
2021/06/10 01:28:49;;;;;;;;;;;14.80;99.90;;;;;;6195960;23;19950;-78
2021/06/10 01:31:16;;;;;;;;;;;14.80;99.90;;;;;;6246038;23;20006;-78
2021/06/10 01:33:47;;;;;;;;;;;14.80;99.90;;;;;;6196480;23;19960;-79
2021/06/10 01:36:34;;;;;;;;;;;14.80;99.90;;;;;;6196202;23;19919;-78
2021/06/10 01:39:04;;;;;;;;;;;14.70;99.90;;;;;;6245859;23;19924;-78
2021/06/10 01:41:37;;;;;;;;;;;14.70;99.90;;;;;;6196896;23;20260;-78
2021/06/10 01:44:05;;;;;;;;;;;14.60;99.90;;;;;;6195857;23;19962;-79
2021/06/10 01:46:32;;;;;;;;;;;14.60;99.90;;;;;;6215556;23;19958;-78
2021/06/10 01:49:04;;;;;;;;;;;14.60;99.90;;;;;;6192003;23;20331;-78
2021/06/10 01:51:37;;;;;;;;;;;14.60;99.90;;;;;;6191901;23;19945;-78
2021/06/10 01:54:09;;;;;;;;;;;14.60;99.90;;;;;;6215655;23;19952;-78
2021/06/10 01:56:36;;;;;;;;;;;14.60;99.90;;;;;;6190668;23;19947;-78
2021/06/10 01:59:03;;;;;;;;;;;14.60;99.90;;;;;;6190738;23;19920;-78
2021/06/10 02:01:36;;;;;;;;;;;14.60;99.90;;;;;;6215654;23;19928;-78
2021/06/10 02:04:09;;;;;;;;;;;14.60;99.90;;;;;;6215413;23;19926;-79
2021/06/10 02:06:40;;;;;;;;;;;14.60;99.90;;;;;;6190732;23;19920;-78
2021/06/10 02:09:13;;;;;;;;;;;14.60;99.90;;;;;;6215746;23;20399;-78
2021/06/10 02:11:40;;;;;;;;;;;14.60;99.90;;;;;;6190260;23;19951;-78
2021/06/10 02:14:08;;;;;;;;;;;14.60;99.90;;;;;;6190446;23;19991;-78
2021/06/10 02:16:38;;;;;;;;;;;14.50;99.90;;;;;;6215883;23;19998;-78
2021/06/10 02:19:05;;;;;;;;;;;14.40;99.90;;;;;;6190767;23;20297;-78
2021/06/10 02:21:32;;;;;;;;;;;14.40;99.90;;;;;;6190504;23;19974;-78
2021/06/10 02:23:59;;;;;;;;;;;14.40;99.90;;;;;;6190516;23;19924;-78
2021/06/10 02:26:32;;;;;;;;;;;14.40;99.90;;;;;;6215364;23;19944;-78
2021/06/10 02:29:01;;;;;;;;;;;14.30;99.90;;;;;;6215506;23;19924;-78
2021/06/10 02:31:28;;;;;;;;;;;14.30;99.90;;;;;;6190370;23;19927;-78
2021/06/10 02:33:55;;;;;;;;;;;14.30;99.90;;;;;;6214812;23;19942;-78
2021/06/10 02:36:22;;;;;;;;;;;14.20;99.90;;;;;;6190267;23;19931;-78
2021/06/10 02:38:55;;;;;;;;;;;14.20;99.90;;;;;;6215174;23;20007;-78
2021/06/10 02:41:28;;;;;;;;;;;14.20;99.90;;;;;;6215184;23;19920;-78
2021/06/10 02:43:57;;;;;;;;;;;14.20;99.90;;;;;;6215163;23;19995;-78
2021/06/10 02:46:26;;;;;;;;;;;14.20;99.90;;;;;;6215160;23;20252;-78
2021/06/10 02:49:00;;;;;;;;;;;14.10;99.90;;;;;;6215359;23;19998;-78
2021/06/10 02:51:32;;;;;;;;;;;14.10;99.90;;;;;;6191212;23;19920;-78
2021/06/10 02:54:07;;;;;;;;;;;14.10;99.90;;;;;;6191400;23;19951;-78
2021/06/10 02:56:41;;;;;;;;;;;14.10;99.90;;;;;;6215064;23;19947;-78
2021/06/10 02:59:11;;;;;;;;;;;14.10;99.90;;;;;;6190156;23;20340;-79
2021/06/10 03:01:43;;;;;;;;;;;14.10;99.90;;;;;;6214825;23;19945;-78
2021/06/10 03:04:11;;;;;;;;;;;14.10;99.90;;;;;;6190449;23;19952;-78
2021/06/10 03:06:38;;;;;;;;;;;14.10;99.90;;;;;;6190266;23;20333;-78
2021/06/10 03:09:14;;;;;;;;;;;14.10;99.90;;;;;;6215144;23;19923;-78
2021/06/10 03:11:49;;;;;;;;;;;14.10;99.90;;;;;;6214487;23;19920;-78
2021/06/10 03:14:17;;;;;;;;;;;14.10;99.90;;;;;;6215012;23;19920;-78
2021/06/10 03:16:45;;;;;;;;;;;14.10;99.90;;;;;;6214722;23;19920;-78
2021/06/10 03:19:13;;;;;;;;;;;14.00;99.90;;;;;;6189900;23;19924;-78
2021/06/10 03:21:40;;;;;;;;;;;14.00;99.90;;;;;;6189973;23;19920;-78
2021/06/10 03:24:07;;;;;;;;;;;14.10;99.90;;;;;;6189609;23;19928;-78
2021/06/10 03:26:40;;;;;;;;;;;14.00;99.90;;;;;;6190917;23;20006;-79
2021/06/10 03:29:13;;;;;;;;;;;14.00;99.90;;;;;;6214724;23;19924;-78
2021/06/10 03:31:41;;;;;;;;;;;13.90;99.90;;;;;;6189893;23;19920;-78
2021/06/10 03:34:08;;;;;;;;;;;13.90;99.90;;;;;;6189646;23;19970;-78
2021/06/10 03:36:42;;;;;;;;;;;13.90;99.90;;;;;;6214793;23;19951;-79
2021/06/10 03:39:16;;;;;;;;;;;13.90;99.90;;;;;;6214438;23;20002;-78
2021/06/10 03:41:49;;;;;;;;;;;13.90;99.90;;;;;;6216029;23;19920;-77
2021/06/10 03:44:17;;;;;;;;;;;13.90;99.90;;;;;;6215411;23;19919;-77
2021/06/10 03:46:44;;;;;;;;;;;14.00;99.90;;;;;;6189176;23;19920;-78
2021/06/10 03:49:11;;;;;;;;;;;14.00;99.90;;;;;;6214601;23;19962;-78
2021/06/10 03:51:47;;;;;;;;;;;13.90;99.90;;;;;;6190354;23;20006;-77
2021/06/10 03:54:14;;;;;;;;;;;14.00;99.90;;;;;;6202430;23;19943;-80
2021/06/10 03:56:46;;;;;;;;;;;14.00;99.90;;;;;;6240227;23;19911;-79
2021/06/10 03:59:13;;;;;;;;;;;14.00;99.90;;;;;;6238771;23;19920;-79
2021/06/10 04:01:45;;;;;;;;;;;14.00;99.90;;;;;;6235235;23;19920;-78
2021/06/10 04:04:11;;;;;;;;;;;13.90;99.90;;;;;;6189109;23;19924;-78
2021/06/10 04:06:43;;;;;;;;;;;14.00;99.90;;;;;;6190874;23;19920;-77
2021/06/10 04:09:10;;;;;;;;;;;14.00;99.90;;;;;;6189293;23;19920;-77
2021/06/10 04:11:40;;;;;;;;;;;14.00;99.90;;;;;;6189486;23;19947;-78
2021/06/10 04:14:11;;;;;;;;;;;14.00;99.90;;;;;;6189785;23;19958;-77
2021/06/10 04:16:45;;;;;;;;;;;14.00;99.90;;;;;;6190510;23;19954;-77
2021/06/10 04:19:16;;;;;;;;;;;14.00;99.90;;;;;;6214229;23;19920;-78
2021/06/10 04:21:43;;;;;;;;;;;14.10;99.90;;;;;;6189651;23;19924;-77
2021/06/10 04:24:10;;;;;;;;;;;14.10;99.90;;;;;;6189113;23;19924;-78
2021/06/10 04:26:38;;;;;;;;;;;14.10;99.90;;;;;;6189483;23;19920;-77
2021/06/10 04:29:09;;;;;;;;;;;14.10;99.90;;;;;;6214277;23;19998;-77
2021/06/10 04:31:41;;;;;;;;;;;14.20;99.90;;;;;;6190548;23;20257;-77
2021/06/10 04:34:07;;;;;;;;;;;14.20;99.90;;;;;;6190232;23;19920;-77
2021/06/10 04:36:39;;;;;;;;;;;14.20;99.90;;;;;;6215452;23;19958;-78
2021/06/10 04:39:06;;;;;;;;;;;14.20;99.90;;;;;;6189779;23;19978;-77
2021/06/10 04:41:33;;;;;;;;;;;14.20;99.90;;;;;;6189424;23;19924;-78
2021/06/10 04:43:59;;;;;;;;;;;14.30;99.90;;;;;;6189828;23;19962;-78
2021/06/10 04:46:26;;;;;;;;;;;14.20;99.90;;;;;;6212954;23;20399;-77
2021/06/10 04:48:54;;;;;;;;;;;14.30;99.90;;;;;;6188999;23;19924;-77
2021/06/10 04:51:22;;;;;;;;;;;14.30;99.90;;;;;;6189079;23;20003;-77
2021/06/10 04:53:49;;;;;;;;;;;14.40;99.90;;;;;;6189142;23;19927;-79
2021/06/10 04:56:17;;;;;;;;;;;14.40;99.90;;;;;;6189044;23;20337;-77
2021/06/10 04:58:44;;;;;;;;;;;14.40;99.90;;;;;;6188876;23;19920;-77
2021/06/10 05:01:11;;;;;;;;;;;14.40;99.90;;;;;;6189256;23;19942;-77
2021/06/10 05:03:42;;;;;;;;;;;14.50;99.90;;;;;;6187973;23;19924;-77
2021/06/10 05:06:09;;;;;;;;;;;14.50;99.90;;;;;;6188791;23;20300;-77
2021/06/10 05:08:36;;;;;;;;;;;14.50;99.90;;;;;;6215293;23;20340;-77
2021/06/10 05:11:08;;;;;;;;;;;14.50;99.90;;;;;;6190716;23;20313;-77
2021/06/10 05:13:35;;;;;;;;;;;14.60;99.90;;;;;;6194427;23;20395;-77
2021/06/10 05:16:01;;;;;;;;;;;14.60;99.90;;;;;;6190590;23;19924;-77
2021/06/10 05:18:34;;;;;;;;;;;14.70;99.90;;;;;;6213494;23;19920;-77
2021/06/10 05:21:01;;;;;;;;;;;14.70;99.90;;;;;;6189509;23;19920;-77
2021/06/10 05:23:29;;;;;;;;;;;14.70;99.90;;;;;;6189228;23;19955;-77
2021/06/10 05:26:00;;;;;;;;;;;14.80;99.90;;;;;;6216138;23;19920;-77
2021/06/10 05:28:34;;;;;;;;;;;14.80;99.90;;;;;;6215164;23;19978;-78
2021/06/10 05:31:05;;;;;;;;;;;14.90;99.90;;;;;;6189596;23;20002;-77
2021/06/10 05:33:31;;;;;;;;;;;14.90;99.90;;;;;;6189533;23;19927;-77
2021/06/10 05:36:04;;;;;;;;;;;15.00;99.90;;;;;;6215784;23;20006;-77
2021/06/10 05:38:35;;;;;;;;;;;15.00;99.90;;;;;;6215905;23;19951;-77
2021/06/10 05:41:02;;;;;;;;;;;15.10;99.90;;;;;;6190530;23;19919;-77
2021/06/10 05:43:35;;;;;;;;;;;15.20;99.90;;;;;;6215316;23;19942;-77
2021/06/10 05:46:07;;;;;;;;;;;15.20;99.90;;;;;;6215170;23;20351;-77
2021/06/10 05:48:34;;;;;;;;;;;15.30;99.90;;;;;;6191026;23;19920;-78
2021/06/10 05:51:00;;;;;;;;;;;15.30;99.90;;;;;;6190439;23;19927;-78
2021/06/10 05:53:36;;;;;;;;;;;15.40;99.90;;;;;;6191470;23;20007;-77
2021/06/10 05:56:09;;;;;;;;;;;15.40;99.90;;;;;;6193470;23;19920;-77
2021/06/10 05:58:37;;;;;;;;;;;15.50;99.90;;;;;;6194240;23;19931;-78
2021/06/10 06:01:05;;;;;;;;;;;15.60;99.90;;;;;;6192799;23;19931;-78
2021/06/10 06:03:32;;;;;;;;;;;15.60;99.90;;;;;;6196528;23;19943;-79
2021/06/10 06:06:00;;;;;;;;;;;15.70;99.90;;;;;;6194209;23;19926;-79
2021/06/10 06:08:30;;;;;;;;;;;15.70;99.90;;;;;;6195877;23;19924;-78
2021/06/10 06:10:57;;;;;;;;;;;15.80;99.90;;;;;;6194528;23;19919;-78
2021/06/10 06:16:22;;;;;;;;;;;16.00;99.90;;;;;;6208761;23;19926;-78
2021/06/10 06:18:50;;;;;;;;;;;16.10;99.90;;;;;;6201175;23;19926;-79
2021/06/10 06:21:18;;;;;;;;;;;16.10;99.90;;;;;;6193826;23;19927;-79
2021/06/10 06:32:01;;;;;;;;;;;16.40;99.90;;;;;;6219705;23;19955;-78
2021/06/10 06:34:29;;;;;;;;;;;16.50;99.90;;;;;;6231646;22;19920;-78
2021/06/10 06:36:56;;;;;;;;;;;16.60;99.90;;;;;;6195048;23;19926;-79
2021/06/10 06:39:28;;;;;;;;;;;16.60;99.90;;;;;;6218361;23;19986;-79
2021/06/10 06:41:57;;;;;;;;;;;16.70;99.90;;;;;;6195435;23;19920;-79
2021/06/10 06:44:25;;;;;;;;;;;16.70;99.90;;;;;;6194048;23;20329;-79
2021/06/10 06:46:52;;;;;;;;;;;16.70;99.90;;;;;;6192900;23;19963;-79
2021/06/10 06:49:20;;;;;;;;;;;16.80;99.90;;;;;;6195570;23;19920;-79
2021/06/10 06:51:48;;;;;;;;;;;16.90;99.90;;;;;;6224754;23;19920;-79
2021/06/10 06:54:15;;;;;;;;;;;16.90;99.90;;;;;;6198725;23;20371;-79
2021/06/10 06:56:42;;;;;;;;;;;17.00;99.90;;;;;;6197627;23;19927;-79
2021/06/10 06:59:09;;;;;;;;;;;17.10;99.90;;;;;;6196634;23;20256;-80
2021/06/10 07:01:36;;;;;;;;;;;17.10;99.90;;;;;;6195648;23;19920;-78
2021/06/10 07:04:03;;;;;;;;;;;17.20;99.90;;;;;;6193531;23;19924;-79
2021/06/10 07:10:36;;;;;;;;;;;17.30;99.90;;;;;;6233871;23;19962;-79
2021/06/10 07:22:10;;;;;;;;;;;17.60;99.90;;;;;;6242231;22;19921;-77
2021/06/10 07:33:37;;;;;;;;;;;18.00;99.90;;;;;;6060295;23;19925;-79
2021/06/10 07:41:25;;;;;;;;;;;18.30;99.90;;;;;;6061193;23;19921;-79
2021/06/10 07:43:53;;;;;;;;;;;18.50;99.90;;;;;;6069268;23;19929;-77
2021/06/10 07:46:20;;;;;;;;;;;18.50;99.90;;;;;;6070281;23;19963;-77
2021/06/10 07:48:52;;;;;;;;;;;18.50;99.90;;;;;;6070163;23;19959;-77
2021/06/10 07:51:19;;;;;;;;;;;18.60;99.90;;;;;;6070460;23;19961;-77
2021/06/10 07:53:45;;;;;;;;;;;18.70;99.90;;;;;;6069935;23;19955;-77
2021/06/10 07:56:12;;;;;;;;;;;18.80;99.90;;;;;;6070388;23;19926;-77
2021/06/10 07:58:39;;;;;;;;;;;18.80;99.90;;;;;;6070566;23;20341;-76
2021/06/10 08:01:05;;;;;;;;;;;18.90;99.90;;;;;;6046628;23;19921;-76
2021/06/10 08:03:32;;;;;;;;;;;18.90;99.90;;;;;;6121337;23;19944;-77
2021/06/10 08:06:00;;;;;;;;;;;19.00;99.90;;;;;;6187714;23;20368;-77
2021/06/10 08:08:27;;;;;;;;;;;19.10;99.90;;;;;;6212898;23;20360;-77
2021/06/10 08:10:54;;;;;;;;;;;19.20;99.90;;;;;;6212837;23;19958;-77
2021/06/10 08:13:22;;;;;;;;;;;19.20;99.90;;;;;;6212877;23;19952;-76
2021/06/10 08:15:50;;;;;;;;;;;19.30;99.90;;;;;;6212774;23;19920;-77
2021/06/10 08:18:18;;;;;;;;;;;19.40;99.90;;;;;;6187802;23;19954;-77
2021/06/10 08:20:44;;;;;;;;;;;19.60;99.90;;;;;;6212269;23;20373;-76
2021/06/10 08:23:11;;;;;;;;;;;19.60;99.90;;;;;;6187705;23;20030;-77
2021/06/10 08:25:43;;;;;;;;;;;19.70;99.90;;;;;;6211514;23;19920;-77
2021/06/10 08:28:11;;;;;;;;;;;19.80;99.90;;;;;;6187737;23;19970;-77
2021/06/10 08:30:43;;;;;;;;;;;19.90;99.90;;;;;;6213431;23;19920;-80
2021/06/10 08:33:16;;;;;;;;;;;19.90;99.90;;;;;;6211386;23;19989;-77
2021/06/10 08:35:43;;;;;;;;;;;20.00;99.90;;;;;;6212602;23;19955;-77
2021/06/10 08:38:14;;;;;;;;;;;20.00;99.90;;;;;;6211691;23;19924;-77
2021/06/10 08:40:46;;;;;;;;;;;20.10;99.90;;;;;;6188768;23;20340;-79
2021/06/10 08:43:12;;;;;;;;;;;20.20;99.90;;;;;;6186787;23;19970;-78
2021/06/10 08:45:47;;;;;;;;;;;20.30;99.90;;;;;;6211243;23;20337;-78
2021/06/10 08:48:14;;;;;;;;;;;20.40;99.90;;;;;;6212550;23;19935;-77
2021/06/10 08:50:42;;;;;;;;;;;20.50;99.90;;;;;;6212400;23;20372;-78
2021/06/10 08:53:14;;;;;;;;;;;20.50;99.90;;;;;;6211042;23;20320;-77
2021/06/10 08:55:43;;;;;;;;;;;20.60;99.90;;;;;;6210202;23;19924;-77
2021/06/10 08:58:10;;;;;;;;;;;20.70;99.90;;;;;;6214177;23;19923;-77
2021/06/10 09:00:37;;;;;;;;;;;20.80;99.90;;;;;;6212180;23;19995;-78
2021/06/10 09:03:06;;;;;;;;;;;20.90;99.90;;;;;;6189186;23;19924;-78
2021/06/10 09:05:33;;;;;;;;;;;21.00;99.90;;;;;;6188860;23;19920;-78
2021/06/10 09:08:04;;;;;;;;;;;21.20;99.90;;;;;;6188824;23;19920;-78
2021/06/10 09:10:32;;;;;;;;;;;21.30;99.90;;;;;;6213772;23;19920;-78
2021/06/10 09:13:00;;;;;;;;;;;21.40;99.90;;;;;;6213793;23;19924;-78
2021/06/10 09:15:34;;;;;;;;;;;21.40;99.90;;;;;;6213816;23;19994;-78
2021/06/10 09:18:02;;;;;;;;;;;21.50;99.90;;;;;;6188997;23;20257;-78
2021/06/10 09:20:32;;;;;;;;;;;21.60;99.90;;;;;;6213786;23;19923;-78
2021/06/10 09:23:20;;;;;;;;;;;21.60;99.90;;;;;;6188940;23;19978;-78
2021/06/10 09:26:04;;;;;;;;;;;21.70;99.90;;;;;;6214133;23;19970;-78
2021/06/10 09:28:32;;;;;;;;;;;21.80;99.90;;;;;;6189087;23;20007;-79
2021/06/10 09:30:59;;;;;;;;;;;22.00;99.90;;;;;;6188917;23;19968;-78
2021/06/10 09:33:41;;;;;;;;;;;22.20;99.90;;;;;;6213947;23;19920;-78
2021/06/10 09:36:15;;;;;;;;;;;22.30;99.90;;;;;;6214132;23;19919;-79
2021/06/10 09:39:01;;;;;;;;;;;22.40;99.90;;;;;;6188710;23;19951;-78
2021/06/10 09:41:33;;;;;;;;;;;22.50;99.90;;;;;;6213617;23;20317;-78
2021/06/10 09:44:00;;;;;;;;;;;22.50;99.90;;;;;;6189862;23;19920;-79
2021/06/10 09:46:27;;;;;;;;;;;22.70;99.90;;;;;;6190574;23;19920;-78
2021/06/10 09:49:06;;;;;;;;;;;22.60;99.90;;;;;;6190974;23;19971;-78
2021/06/10 09:51:35;;;;;;;;;;;22.70;99.90;;;;;;6215564;23;19923;-78
2021/06/10 09:54:02;;;;;;;;;;;22.80;99.90;;;;;;6215346;23;20376;-78
2021/06/10 09:56:36;;;;;;;;;;;22.90;99.90;;;;;;6215902;23;19946;-78
2021/06/10 09:59:04;;;;;;;;;;;23.00;99.90;;;;;;6190157;23;20010;-79
2021/06/10 10:01:32;;;;;;;;;;;23.10;99.90;;;;;;6190750;23;19934;-78
2021/06/10 10:04:01;;;;;;;;;;;23.10;99.90;;;;;;6215297;23;19966;-78
2021/06/10 10:06:30;;;;;;;;;;;23.00;99.90;;;;;;6191641;23;19963;-79
2021/06/10 10:09:02;;;;;;;;;;;23.00;99.90;;;;;;6225736;23;20252;-79
2021/06/10 10:11:32;;;;;;;;;;;23.10;99.90;;;;;;6199907;23;20245;-79
2021/06/10 10:14:00;;;;;;;;;;;23.20;99.90;;;;;;6196158;23;19926;-78
2021/06/10 10:16:33;;;;;;;;;;;23.10;99.90;;;;;;6221229;23;19927;-79
2021/06/10 10:19:03;;;;;;;;;;;23.10;99.90;;;;;;6222516;23;19929;-78
2021/06/10 10:21:36;;;;;;;;;;;23.10;99.90;;;;;;6229091;23;19920;-79
2021/06/10 10:24:07;;;;;;;;;;;23.20;99.90;;;;;;6202279;23;20256;-80
2021/06/10 10:26:40;;;;;;;;;;;23.40;99.90;;;;;;6227809;23;19955;-79
2021/06/10 10:29:13;;;;;;;;;;;23.40;99.90;;;;;;6232849;23;19923;-78
2021/06/10 10:31:41;;;;;;;;;;;23.60;99.90;;;;;;6204871;23;19920;-80
2021/06/10 10:34:21;;;;;;;;;;;23.80;99.90;;;;;;6201178;23;19931;-80
2021/06/10 10:36:52;;;;;;;;;;;23.70;99.90;;;;;;6206387;23;19939;-78
2021/06/10 10:39:34;;;;;;;;;;;23.60;99.90;;;;;;6206290;23;19980;-79
2021/06/10 10:42:08;;;;;;;;;;;23.40;99.90;;;;;;6209167;23;20003;-78
2021/06/10 10:44:36;;;;;;;;;;;23.30;99.90;;;;;;6212030;23;19927;-79
2021/06/10 10:47:10;;;;;;;;;;;23.50;99.90;;;;;;6237392;23;19954;-78
2021/06/10 10:49:40;;;;;;;;;;;23.60;99.90;;;;;;6235557;23;19920;-79
2021/06/10 10:52:26;;;;;;;;;;;23.60;99.90;;;;;;6202271;23;19954;-79
2021/06/10 10:55:29;;;;;;;;;;;23.90;99.90;;;;;;6223042;23;19920;-78
2021/06/10 10:58:11;;;;;;;;;;;24.10;99.90;;;;;;6231251;23;19948;-80
2021/06/10 11:01:02;;;;;;;;;;;24.20;99.90;;;;;;6209361;23;19968;-79
2021/06/10 11:04:46;;;;;;;;;;;24.00;99.90;;;;;;6233618;23;19939;-79
2021/06/10 11:07:34;;;;;;;;;;;23.80;99.90;;;;;;6205387;23;20006;-79
2021/06/10 11:10:01;;;;;;;;;;;23.60;99.90;;;;;;6223463;23;19920;-79
2021/06/10 11:12:41;;;;;;;;;;;23.60;99.90;;;;;;6217650;23;19999;-80
2021/06/10 11:15:22;;;;;;;;;;;23.40;99.90;;;;;;6192235;23;19927;-79
2021/06/10 11:17:51;;;;;;;;;;;23.40;99.90;;;;;;6191860;23;20349;-79
2021/06/10 11:20:20;;;;;;;;;;;23.40;99.90;;;;;;6195963;23;19927;-79
2021/06/10 11:22:50;;;;;;;;;;;23.50;99.90;;;;;;6197297;23;19927;-79
2021/06/10 11:25:23;;;;;;;;;;;23.50;99.90;;;;;;6193835;23;19924;-79
2021/06/10 11:27:51;;;;;;;;;;;23.60;99.90;;;;;;6220538;23;19930;-79
2021/06/10 11:30:22;;;;;;;;;;;23.70;99.90;;;;;;6198171;23;19994;-79
2021/06/10 11:32:56;;;;;;;;;;;24.00;99.90;;;;;;6198117;23;20158;-79
2021/06/10 11:35:36;;;;;;;;;;;24.30;99.90;;;;;;6200153;23;19927;-79
2021/06/10 11:38:15;;;;;;;;;;;24.40;99.90;;;;;;6198528;23;19951;-79
2021/06/10 11:40:49;;;;;;;;;;;24.40;99.90;;;;;;6221249;23;19920;-79
2021/06/10 11:43:17;;;;;;;;;;;24.30;99.90;;;;;;6193040;23;19947;-79
2021/06/10 11:45:46;;;;;;;;;;;24.10;99.90;;;;;;6192890;23;19947;-78
2021/06/10 11:48:13;;;;;;;;;;;24.00;99.90;;;;;;6188543;23;20435;-78
2021/06/10 11:50:47;;;;;;;;;;;23.70;99.90;;;;;;6190389;23;19923;-78
2021/06/10 11:53:18;;;;;;;;;;;23.50;99.90;;;;;;6191337;23;20351;-79
2021/06/10 11:55:46;;;;;;;;;;;23.30;99.90;;;;;;6189818;23;20049;-79
2021/06/10 11:58:15;;;;;;;;;;;23.20;99.90;;;;;;6200223;23;19928;-79
2021/06/10 12:00:46;;;;;;;;;;;23.30;99.90;;;;;;6188436;23;19946;-78
2021/06/10 12:03:17;;;;;;;;;;;23.50;99.90;;;;;;6189322;23;20002;-79
2021/06/10 12:05:47;;;;;;;;;;;23.70;99.90;;;;;;6186541;23;19924;-79
2021/06/10 12:08:16;;;;;;;;;;;24.00;99.90;;;;;;6189552;23;19920;-78
2021/06/10 12:11:10;;;;;;;;;;;24.10;99.90;;;;;;6187837;23;19920;-79
2021/06/10 12:13:45;;;;;;;;;;;24.30;99.90;;;;;;6212386;23;19928;-79
2021/06/10 12:16:17;;;;;;;;;;;24.30;99.90;;;;;;6197441;23;19943;-79
2021/06/10 12:18:49;;;;;;;;;;;24.60;99.90;;;;;;6199279;23;21321;-78
2021/06/10 12:21:18;;;;;;;;;;;24.90;99.90;;;;;;6222826;23;19970;-79
2021/06/10 12:23:45;;;;;;;;;;;25.00;99.90;;;;;;6198580;23;19964;-79
2021/06/10 12:26:16;;;;;;;;;;;25.00;99.90;;;;;;6225485;23;19959;-79
2021/06/10 12:28:51;;;;;;;;;;;25.10;99.90;;;;;;6199222;23;20183;-79
2021/06/10 12:31:24;;;;;;;;;;;25.00;99.90;;;;;;6201167;23;19920;-79
2021/06/10 12:33:51;;;;;;;;;;;25.20;99.90;;;;;;6206116;23;19951;-79
2021/06/10 12:36:24;;;;;;;;;;;25.40;99.90;;;;;;6230680;23;19964;-79
2021/06/10 12:38:55;;;;;;;;;;;25.60;98.70;;;;;;6229792;23;19951;-79
2021/06/10 12:41:32;;;;;;;;;;;25.60;98.70;;;;;;6232208;23;19920;-79
2021/06/10 12:44:05;;;;;;;;;;;25.70;97.10;;;;;;6232042;23;19920;-78
2021/06/10 12:47:05;;;;;;;;;;;25.90;96.40;;;;;;6207676;23;19927;-78
2021/06/10 12:49:39;;;;;;;;;;;25.80;92.70;;;;;;6175153;23;19920;-79
2021/06/10 12:52:11;;;;;;;;;;;25.80;92.60;;;;;;6205283;23;19931;-79
2021/06/10 12:54:58;;;;;;;;;;;25.80;92.60;;;;;;6228146;23;19904;-78
2021/06/10 12:57:54;;;;;;;;;;;25.80;91.50;;;;;;6209903;23;19924;-79
2021/06/10 13:05:08;;;;;;;;;;;26.20;89.30;;;;;;6232975;23;19916;-78
2021/06/10 13:07:39;;;;;;;;;;;26.60;90.80;;;;;;6204200;23;19920;-79
2021/06/10 13:10:08;;;;;;;;;;;26.70;91.10;;;;;;6208391;23;19934;-78
2021/06/10 13:12:39;;;;;;;;;;;26.70;84.60;;;;;;6207197;23;19927;-79
2021/06/10 13:15:08;;;;;;;;;;;26.70;90.50;;;;;;6207263;23;19967;-78
2021/06/10 13:17:47;;;;;;;;;;;26.60;86.50;;;;;;6209215;23;19919;-78
2021/06/10 13:47:21;;;;;;;;;;;27.30;73.50;;;;;;6104505;23;19928;-81
2021/06/10 13:49:53;;;;;;;;;;;27.40;77.00;;;;;;6081398;23;19922;-80
2021/06/10 13:52:24;;;;;;;;;;;27.50;74.70;;;;;;6192474;23;19920;-81
2021/06/10 13:54:51;;;;;;;;;;;27.40;78.70;;;;;;6199237;23;19951;-81
2021/06/10 13:57:22;;;;;;;;;;;27.30;75.20;;;;;;6198578;23;20002;-81
2021/06/10 13:59:49;;;;;;;;;;;27.00;82.50;;;;;;6212349;23;19920;-79
2021/06/10 14:02:21;;;;;;;;;;;26.60;80.10;;;;;;6238157;23;19920;-79
2021/06/10 14:04:48;;;;;;;;;;;26.40;84.00;;;;;;6237250;23;19908;-79
2021/06/10 14:07:15;;;;;;;;;;;26.10;84.40;;;;;;6215280;22;19920;-78
2021/06/10 14:09:43;;;;;;;;;;;25.90;85.40;;;;;;6242525;22;19927;-79
2021/06/10 14:12:13;;;;;;;;;;;25.60;83.70;;;;;;6242273;22;19920;-79
2021/06/10 14:15:27;;;;;;;;;;;25.50;86.90;;;;;;6221444;22;19920;-79
2021/06/10 14:19:47;;;;;;;;;;;25.20;85.20;;;;;;6231515;23;19922;-79
2021/06/10 14:23:47;;;;;;;;;;;24.90;87.40;;;;;;6194389;23;19955;-79
2021/06/10 14:27:10;;;;;;;;;;;24.80;90.70;;;;;;6233604;23;20303;-79
2021/06/10 14:30:10;;;;;;;;;;;24.60;91.80;;;;;;6230120;23;19919;-79
2021/06/10 14:32:37;;;;;;;;;;;24.50;93.00;;;;;;6202237;23;19950;-80
2021/06/10 14:35:05;;;;;;;;;;;24.40;94.90;;;;;;6202510;23;19920;-79
2021/06/10 14:37:33;;;;;;;;;;;24.30;96.10;;;;;;6192760;23;20188;-79
2021/06/10 14:39:59;;;;;;;;;;;24.20;94.70;;;;;;6189128;23;19920;-78
2021/06/10 14:42:31;;;;;;;;;;;23.90;94.80;;;;;;6190935;23;19941;-78
2021/06/10 14:44:58;;;;;;;;;;;23.80;96.00;;;;;;6190825;23;19920;-78
2021/06/10 14:47:30;;;;;;;;;;;23.60;97.40;;;;;;6215342;23;19955;-79
2021/06/10 14:49:57;;;;;;;;;;;23.50;98.00;;;;;;6190480;23;19959;-78
2021/06/10 14:52:24;;;;;;;;;;;23.40;99.40;;;;;;6190759;23;19927;-75
2021/06/10 14:54:56;;;;;;;;;;;23.20;98.60;;;;;;6213470;23;19919;-75
2021/06/10 14:57:23;;;;;;;;;;;23.00;99.90;;;;;;6191645;23;19947;-78
2021/06/10 14:59:49;;;;;;;;;;;22.60;99.90;;;;;;6191152;23;19920;-77
2021/06/10 15:02:16;;;;;;;;;;;22.20;99.90;;;;;;6190649;23;19962;-77
2021/06/10 15:04:43;;;;;;;;;;;21.70;99.90;;;;;;6211812;23;19924;-78
2021/06/10 15:07:09;;;;;;;;;;;21.20;99.90;;;;;;6214987;23;19955;-78
2021/06/10 15:09:41;;;;;;;;;;;21.00;99.90;;;;;;6187406;23;20315;-78
2021/06/10 15:12:13;;;;;;;;;;;20.80;99.90;;;;;;6188454;23;19968;-79
2021/06/10 15:14:39;;;;;;;;;;;20.80;99.90;;;;;;6213942;23;20336;-79
2021/06/10 15:17:11;;;;;;;;;;;20.60;99.90;;;;;;6215191;23;20297;-79
2021/06/10 15:19:38;;;;;;;;;;;20.70;99.90;;;;;;6190483;23;20432;-80
2021/06/10 15:22:04;;;;;;;;;;;21.00;99.90;;;;;;6189933;23;19920;-80
2021/06/10 15:24:36;;;;;;;;;;;21.50;99.90;;;;;;6214463;23;19966;-80
2021/06/10 15:27:08;;;;;;;;;;;21.90;99.90;;;;;;6189614;23;19926;-80
2021/06/10 15:29:35;;;;;;;;;;;22.20;99.90;;;;;;6189485;23;20007;-80
2021/06/10 15:32:02;;;;;;;;;;;22.50;99.90;;;;;;6189690;23;20341;-80
2021/06/10 15:34:31;;;;;;;;;;;22.60;99.90;;;;;;6190043;23;19947;-80
2021/06/10 15:36:59;;;;;;;;;;;22.80;99.90;;;;;;6190195;23;19920;-80
2021/06/10 15:39:26;;;;;;;;;;;22.90;99.90;;;;;;6190293;23;19944;-80
2021/06/10 15:41:53;;;;;;;;;;;22.80;99.90;;;;;;6190640;23;20292;-80
2021/06/10 15:44:21;;;;;;;;;;;22.80;99.90;;;;;;6191208;23;19920;-80
2021/06/10 15:46:48;;;;;;;;;;;22.90;99.90;;;;;;6191348;23;19920;-80
2021/06/10 15:49:21;;;;;;;;;;;23.20;99.90;;;;;;6216583;23;19920;-81
2021/06/10 15:51:48;;;;;;;;;;;23.40;99.90;;;;;;6217022;23;19927;-80